sensor_id;sensor_type;location;lat;lon;timestamp;P1;P2;P0
66195;PMS7003;53000;45.182;5.736;2022-07-05T00:01:00;8.00;7.75;6.50
66195;PMS7003;53000;45.182;5.736;2022-07-05T00:03:26;7.25;6.75;5.75
66195;PMS7003;53000;45.182;5.736;2022-07-05T00:05:53;7.00;7.00;7.00
66195;PMS7003;53000;45.182;5.736;2022-07-05T00:08:18;6.50;5.50;5.00
66195;PMS7003;53000;45.182;5.736;2022-07-05T00:10:43;6.75;6.75;5.50
66195;PMS7003;53000;45.182;5.736;2022-07-05T00:13:09;6.50;6.50;6.00
66195;PMS7003;53000;45.182;5.736;2022-07-05T00:15:35;7.25;6.75;5.00
66195;PMS7003;53000;45.182;5.736;2022-07-05T00:18:01;7.00;7.00;5.50
66195;PMS7003;53000;45.182;5.736;2022-07-05T00:20:26;7.00;7.00;6.00
66195;PMS7003;53000;45.182;5.736;2022-07-05T00:22:52;9.00;7.00;6.00
66195;PMS7003;53000;45.182;5.736;2022-07-05T00:25:17;8.00;7.00;6.50
66195;PMS7003;53000;45.182;5.736;2022-07-05T00:27:43;6.00;6.00;5.75
66195;PMS7003;53000;45.182;5.736;2022-07-05T00:30:08;8.00;7.00;6.00
66195;PMS7003;53000;45.182;5.736;2022-07-05T00:32:35;7.75;7.00;7.00
66195;PMS7003;53000;45.182;5.736;2022-07-05T00:35:01;9.25;8.00;8.00
66195;PMS7003;53000;45.182;5.736;2022-07-05T00:37:27;7.75;7.75;7.00
66195;PMS7003;53000;45.182;5.736;2022-07-05T00:39:53;8.50;8.00;7.00
66195;PMS7003;53000;45.182;5.736;2022-07-05T00:42:18;10.00;7.75;6.75
66195;PMS7003;53000;45.182;5.736;2022-07-05T00:44:43;7.00;7.00;6.00
66195;PMS7003;53000;45.182;5.736;2022-07-05T00:47:10;8.25;7.00;6.25
66195;PMS7003;53000;45.182;5.736;2022-07-05T00:49:37;6.00;6.00;5.00
66195;PMS7003;53000;45.182;5.736;2022-07-05T00:52:04;5.25;5.00;4.50
66195;PMS7003;53000;45.182;5.736;2022-07-05T00:54:32;5.25;4.50;4.50
66195;PMS7003;53000;45.182;5.736;2022-07-05T00:56:59;6.00;4.50;4.00
66195;PMS7003;53000;45.182;5.736;2022-07-05T00:59:25;5.00;5.00;4.00
66195;PMS7003;53000;45.182;5.736;2022-07-05T01:01:52;5.25;5.25;4.50
66195;PMS7003;53000;45.182;5.736;2022-07-05T01:04:18;2.75;2.75;2.25
66195;PMS7003;53000;45.182;5.736;2022-07-05T01:06:45;3.00;3.00;3.00
66195;PMS7003;53000;45.182;5.736;2022-07-05T01:09:12;5.00;4.00;4.00
66195;PMS7003;53000;45.182;5.736;2022-07-05T01:11:40;5.00;5.00;4.00
66195;PMS7003;53000;45.182;5.736;2022-07-05T01:14:07;5.00;4.00;3.50
66195;PMS7003;53000;45.182;5.736;2022-07-05T01:16:37;4.00;4.00;3.75
66195;PMS7003;53000;45.182;5.736;2022-07-05T01:19:03;4.50;4.00;3.50
66195;PMS7003;53000;45.182;5.736;2022-07-05T01:21:31;4.00;4.00;3.50
66195;PMS7003;53000;45.182;5.736;2022-07-05T01:23:58;4.00;3.75;3.25
66195;PMS7003;53000;45.182;5.736;2022-07-05T01:26:23;4.00;4.00;3.25
66195;PMS7003;53000;45.182;5.736;2022-07-05T01:28:50;3.00;3.00;2.25
66195;PMS7003;53000;45.182;5.736;2022-07-05T01:31:15;2.00;2.00;0.75
66195;PMS7003;53000;45.182;5.736;2022-07-05T01:33:40;2.50;2.00;1.50
66195;PMS7003;53000;45.182;5.736;2022-07-05T01:36:06;4.00;4.00;3.25
66195;PMS7003;53000;45.182;5.736;2022-07-05T01:38:32;4.25;4.25;3.75
66195;PMS7003;53000;45.182;5.736;2022-07-05T01:40:57;4.25;3.25;3.00
66195;PMS7003;53000;45.182;5.736;2022-07-05T01:43:22;4.00;4.00;3.50
66195;PMS7003;53000;45.182;5.736;2022-07-05T01:45:49;3.50;3.00;3.00
66195;PMS7003;53000;45.182;5.736;2022-07-05T01:48:16;5.00;4.00;4.00
66195;PMS7003;53000;45.182;5.736;2022-07-05T01:53:51;4.25;4.25;4.00
66195;PMS7003;53000;45.182;5.736;2022-07-05T01:56:17;5.25;4.00;3.00
66195;PMS7003;53000;45.182;5.736;2022-07-05T01:58:43;3.50;3.50;3.00
66195;PMS7003;53000;45.182;5.736;2022-07-05T02:01:10;5.00;5.00;4.00
66195;PMS7003;53000;45.182;5.736;2022-07-05T02:03:37;5.50;5.00;4.25
66195;PMS7003;53000;45.182;5.736;2022-07-05T02:06:04;6.25;5.50;5.00
66195;PMS7003;53000;45.182;5.736;2022-07-05T02:08:31;4.00;4.00;4.00
66195;PMS7003;53000;45.182;5.736;2022-07-05T02:10:57;7.75;7.00;6.00
66195;PMS7003;53000;45.182;5.736;2022-07-05T02:13:22;9.00;7.75;7.00
66195;PMS7003;53000;45.182;5.736;2022-07-05T02:15:48;9.25;6.25;6.25
66195;PMS7003;53000;45.182;5.736;2022-07-05T02:18:14;5.00;5.00;5.00
66195;PMS7003;53000;45.182;5.736;2022-07-05T02:20:40;7.00;6.00;5.00
66195;PMS7003;53000;45.182;5.736;2022-07-05T02:23:05;5.75;5.25;4.75
66195;PMS7003;53000;45.182;5.736;2022-07-05T02:25:32;5.25;5.00;4.00
66195;PMS7003;53000;45.182;5.736;2022-07-05T02:27:57;5.00;5.00;4.00
66195;PMS7003;53000;45.182;5.736;2022-07-05T02:30:23;4.75;3.75;3.50
66195;PMS7003;53000;45.182;5.736;2022-07-05T02:32:48;7.00;6.75;6.00
66195;PMS7003;53000;45.182;5.736;2022-07-05T02:35:14;3.50;2.75;2.00
66195;PMS7003;53000;45.182;5.736;2022-07-05T02:37:39;4.00;4.00;3.00
66195;PMS7003;53000;45.182;5.736;2022-07-05T02:40:06;4.00;3.25;3.00
66195;PMS7003;53000;45.182;5.736;2022-07-05T02:42:32;4.00;4.00;3.75
66195;PMS7003;53000;45.182;5.736;2022-07-05T02:44:58;3.50;3.50;3.00
66195;PMS7003;53000;45.182;5.736;2022-07-05T02:47:23;4.00;4.00;3.00
66195;PMS7003;53000;45.182;5.736;2022-07-05T02:49:49;4.50;3.75;3.25
66195;PMS7003;53000;45.182;5.736;2022-07-05T02:52:14;4.50;3.75;3.00
66195;PMS7003;53000;45.182;5.736;2022-07-05T02:54:39;3.50;3.50;3.00
66195;PMS7003;53000;45.182;5.736;2022-07-05T02:57:05;5.00;4.00;4.00
66195;PMS7003;53000;45.182;5.736;2022-07-05T02:59:30;6.25;5.00;4.00
66195;PMS7003;53000;45.182;5.736;2022-07-05T03:01:56;4.50;4.50;4.00
66195;PMS7003;53000;45.182;5.736;2022-07-05T03:04:21;5.25;5.00;4.25
66195;PMS7003;53000;45.182;5.736;2022-07-05T03:06:47;6.50;4.50;4.50
66195;PMS7003;53000;45.182;5.736;2022-07-05T03:09:12;5.50;5.00;5.00
66195;PMS7003;53000;45.182;5.736;2022-07-05T03:11:37;9.75;7.00;6.00
66195;PMS7003;53000;45.182;5.736;2022-07-05T03:14:03;6.00;6.00;5.00
66195;PMS7003;53000;45.182;5.736;2022-07-05T03:16:28;6.00;6.00;5.00
66195;PMS7003;53000;45.182;5.736;2022-07-05T03:18:54;6.00;6.00;5.50
66195;PMS7003;53000;45.182;5.736;2022-07-05T03:21:20;8.00;7.25;6.00
66195;PMS7003;53000;45.182;5.736;2022-07-05T03:23:45;6.00;5.00;4.25
66195;PMS7003;53000;45.182;5.736;2022-07-05T03:26:10;0.00;0.00;0.00
66195;PMS7003;53000;45.182;5.736;2022-07-05T03:28:36;7.75;6.75;6.25
66195;PMS7003;53000;45.182;5.736;2022-07-05T03:31:01;5.00;5.00;4.00
66195;PMS7003;53000;45.182;5.736;2022-07-05T03:33:27;4.00;4.00;3.50
66195;PMS7003;53000;45.182;5.736;2022-07-05T03:35:52;7.00;5.00;4.00
66195;PMS7003;53000;45.182;5.736;2022-07-05T03:38:17;3.00;3.00;3.00
66195;PMS7003;53000;45.182;5.736;2022-07-05T03:40:43;3.75;3.25;3.00
66195;PMS7003;53000;45.182;5.736;2022-07-05T03:43:08;3.75;3.75;3.00
66195;PMS7003;53000;45.182;5.736;2022-07-05T03:45:34;2.75;2.50;2.25
66195;PMS7003;53000;45.182;5.736;2022-07-05T03:47:59;3.75;3.75;3.00
66195;PMS7003;53000;45.182;5.736;2022-07-05T03:50:26;3.50;3.50;3.00
66195;PMS7003;53000;45.182;5.736;2022-07-05T03:52:52;4.75;4.00;3.50
66195;PMS7003;53000;45.182;5.736;2022-07-05T03:55:17;3.25;3.25;2.25
66195;PMS7003;53000;45.182;5.736;2022-07-05T03:57:43;4.75;3.75;3.00
66195;PMS7003;53000;45.182;5.736;2022-07-05T04:00:08;4.00;4.00;3.50
66195;PMS7003;53000;45.182;5.736;2022-07-05T04:02:34;4.00;3.75;3.00
66195;PMS7003;53000;45.182;5.736;2022-07-05T04:05:00;4.50;4.25;4.00
66195;PMS7003;53000;45.182;5.736;2022-07-05T04:07:25;4.75;4.75;4.00
66195;PMS7003;53000;45.182;5.736;2022-07-05T04:09:50;3.25;3.00;2.25
66195;PMS7003;53000;45.182;5.736;2022-07-05T04:12:16;4.75;3.25;2.25
66195;PMS7003;53000;45.182;5.736;2022-07-05T04:14:41;4.00;4.00;4.00
66195;PMS7003;53000;45.182;5.736;2022-07-05T04:17:07;3.25;3.25;3.00
66195;PMS7003;53000;45.182;5.736;2022-07-05T04:19:32;7.00;5.25;4.75
66195;PMS7003;53000;45.182;5.736;2022-07-05T04:21:57;4.00;4.00;3.00
66195;PMS7003;53000;45.182;5.736;2022-07-05T04:24:23;5.00;4.00;3.75
66195;PMS7003;53000;45.182;5.736;2022-07-05T04:26:48;4.00;4.00;3.50
66195;PMS7003;53000;45.182;5.736;2022-07-05T04:29:14;5.00;5.00;5.00
66195;PMS7003;53000;45.182;5.736;2022-07-05T04:31:39;4.75;4.75;4.50
66195;PMS7003;53000;45.182;5.736;2022-07-05T04:34:05;4.50;3.75;3.25
66195;PMS7003;53000;45.182;5.736;2022-07-05T04:36:30;4.00;4.00;4.00
66195;PMS7003;53000;45.182;5.736;2022-07-05T04:38:55;4.50;4.50;4.00
66195;PMS7003;53000;45.182;5.736;2022-07-05T04:41:21;5.00;4.00;4.00
66195;PMS7003;53000;45.182;5.736;2022-07-05T04:43:46;3.25;3.25;3.25
66195;PMS7003;53000;45.182;5.736;2022-07-05T04:46:11;3.00;3.00;3.00
66195;PMS7003;53000;45.182;5.736;2022-07-05T04:48:37;4.25;4.25;3.25
66195;PMS7003;53000;45.182;5.736;2022-07-05T04:51:02;5.25;4.75;4.25
66195;PMS7003;53000;45.182;5.736;2022-07-05T04:53:28;3.50;3.50;3.00
66195;PMS7003;53000;45.182;5.736;2022-07-05T04:55:53;3.75;3.75;3.75
66195;PMS7003;53000;45.182;5.736;2022-07-05T04:58:18;4.50;3.50;3.25
66195;PMS7003;53000;45.182;5.736;2022-07-05T05:00:44;3.75;3.75;3.25
66195;PMS7003;53000;45.182;5.736;2022-07-05T05:03:09;3.75;3.75;3.50
66195;PMS7003;53000;45.182;5.736;2022-07-05T05:05:35;5.00;4.00;4.00
66195;PMS7003;53000;45.182;5.736;2022-07-05T05:08:00;5.00;5.00;5.00
66195;PMS7003;53000;45.182;5.736;2022-07-05T05:10:26;4.75;4.75;4.25
66195;PMS7003;53000;45.182;5.736;2022-07-05T05:12:51;3.25;3.25;3.25
66195;PMS7003;53000;45.182;5.736;2022-07-05T05:15:17;4.50;4.00;3.00
66195;PMS7003;53000;45.182;5.736;2022-07-05T05:17:43;3.00;3.00;3.00
66195;PMS7003;53000;45.182;5.736;2022-07-05T05:20:16;4.25;4.25;3.75
66195;PMS7003;53000;45.182;5.736;2022-07-05T05:22:42;4.00;4.00;3.75
66195;PMS7003;53000;45.182;5.736;2022-07-05T05:25:09;4.00;4.00;3.75
66195;PMS7003;53000;45.182;5.736;2022-07-05T05:27:39;5.00;4.75;4.00
66195;PMS7003;53000;45.182;5.736;2022-07-05T05:30:09;3.75;3.00;3.00
66195;PMS7003;53000;45.182;5.736;2022-07-05T05:32:35;4.00;4.00;3.75
66195;PMS7003;53000;45.182;5.736;2022-07-05T05:35:00;5.00;5.00;4.50
66195;PMS7003;53000;45.182;5.736;2022-07-05T05:37:25;3.50;3.50;3.25
66195;PMS7003;53000;45.182;5.736;2022-07-05T05:39:51;4.25;4.00;3.25
66195;PMS7003;53000;45.182;5.736;2022-07-05T05:42:16;4.25;4.25;4.25
66195;PMS7003;53000;45.182;5.736;2022-07-05T05:44:42;4.00;4.00;3.50
66195;PMS7003;53000;45.182;5.736;2022-07-05T05:47:07;4.50;4.25;4.25
66195;PMS7003;53000;45.182;5.736;2022-07-05T05:49:32;4.00;4.00;3.50
66195;PMS7003;53000;45.182;5.736;2022-07-05T05:51:58;2.25;2.25;2.00
66195;PMS7003;53000;45.182;5.736;2022-07-05T05:54:23;2.25;2.00;1.50
66195;PMS7003;53000;45.182;5.736;2022-07-05T05:56:48;4.00;4.00;3.50
66195;PMS7003;53000;45.182;5.736;2022-07-05T05:59:14;2.25;2.25;2.25
66195;PMS7003;53000;45.182;5.736;2022-07-05T06:01:39;6.00;3.25;2.75
66195;PMS7003;53000;45.182;5.736;2022-07-05T06:04:05;5.00;4.00;4.00
66195;PMS7003;53000;45.182;5.736;2022-07-05T06:06:30;4.50;4.50;4.00
66195;PMS7003;53000;45.182;5.736;2022-07-05T06:08:55;4.25;4.25;4.00
66195;PMS7003;53000;45.182;5.736;2022-07-05T06:11:21;3.00;3.00;2.75
66195;PMS7003;53000;45.182;5.736;2022-07-05T06:13:46;4.75;4.75;4.00
66195;PMS7003;53000;45.182;5.736;2022-07-05T06:16:12;5.00;4.25;4.00
66195;PMS7003;53000;45.182;5.736;2022-07-05T06:18:37;4.50;4.50;4.00
66195;PMS7003;53000;45.182;5.736;2022-07-05T06:21:02;4.75;3.75;3.50
66195;PMS7003;53000;45.182;5.736;2022-07-05T06:23:28;4.75;4.00;4.00
66195;PMS7003;53000;45.182;5.736;2022-07-05T06:25:53;3.75;3.25;3.25
66195;PMS7003;53000;45.182;5.736;2022-07-05T06:28:19;6.50;4.50;3.50
66195;PMS7003;53000;45.182;5.736;2022-07-05T06:30:44;4.25;4.00;3.25
66195;PMS7003;53000;45.182;5.736;2022-07-05T06:33:09;5.25;4.50;4.00
66195;PMS7003;53000;45.182;5.736;2022-07-05T06:35:35;5.00;5.00;4.00
66195;PMS7003;53000;45.182;5.736;2022-07-05T06:38:02;3.75;3.75;3.75
66195;PMS7003;53000;45.182;5.736;2022-07-05T06:40:30;5.75;4.75;4.00
66195;PMS7003;53000;45.182;5.736;2022-07-05T06:42:58;5.00;4.25;4.25
66195;PMS7003;53000;45.182;5.736;2022-07-05T06:45:24;6.00;6.00;5.00
66195;PMS7003;53000;45.182;5.736;2022-07-05T06:47:57;5.00;4.00;3.75
66195;PMS7003;53000;45.182;5.736;2022-07-05T06:50:24;3.50;3.00;2.50
66195;PMS7003;53000;45.182;5.736;2022-07-05T06:52:50;4.75;3.75;3.25
66195;PMS7003;53000;45.182;5.736;2022-07-05T06:55:15;4.25;3.25;3.00
66195;PMS7003;53000;45.182;5.736;2022-07-05T06:57:41;4.00;4.00;3.50
66195;PMS7003;53000;45.182;5.736;2022-07-05T07:00:08;4.50;4.00;3.75
66195;PMS7003;53000;45.182;5.736;2022-07-05T07:02:35;3.00;3.00;3.00
66195;PMS7003;53000;45.182;5.736;2022-07-05T07:05:00;4.25;3.75;3.25
66195;PMS7003;53000;45.182;5.736;2022-07-05T07:07:25;5.00;4.50;4.00
66195;PMS7003;53000;45.182;5.736;2022-07-05T07:10:09;3.00;3.00;2.50
66195;PMS7003;53000;45.182;5.736;2022-07-05T07:12:34;6.00;5.25;4.50
66195;PMS7003;53000;45.182;5.736;2022-07-05T07:15:00;4.00;3.50;3.00
66195;PMS7003;53000;45.182;5.736;2022-07-05T07:17:25;6.00;6.00;5.00
66195;PMS7003;53000;45.182;5.736;2022-07-05T07:19:51;4.75;4.75;4.00
66195;PMS7003;53000;45.182;5.736;2022-07-05T07:22:16;5.00;5.00;4.00
66195;PMS7003;53000;45.182;5.736;2022-07-05T07:24:42;6.00;6.00;5.00
66195;PMS7003;53000;45.182;5.736;2022-07-05T07:27:07;5.75;5.50;4.50
66195;PMS7003;53000;45.182;5.736;2022-07-05T07:29:36;5.50;5.00;5.00
66195;PMS7003;53000;45.182;5.736;2022-07-05T07:32:04;6.00;5.50;5.00
66195;PMS7003;53000;45.182;5.736;2022-07-05T07:34:31;4.00;4.00;4.00
66195;PMS7003;53000;45.182;5.736;2022-07-05T07:36:57;7.00;5.75;5.00
66195;PMS7003;53000;45.182;5.736;2022-07-05T07:39:23;6.50;4.00;4.00
66195;PMS7003;53000;45.182;5.736;2022-07-05T07:41:49;5.00;5.00;4.00
66195;PMS7003;53000;45.182;5.736;2022-07-05T07:44:15;4.50;4.00;3.25
66195;PMS7003;53000;45.182;5.736;2022-07-05T07:46:40;4.50;4.00;3.75
66195;PMS7003;53000;45.182;5.736;2022-07-05T07:49:06;3.75;3.50;3.25
66195;PMS7003;53000;45.182;5.736;2022-07-05T07:51:32;5.00;4.00;3.25
66195;PMS7003;53000;45.182;5.736;2022-07-05T07:53:58;6.00;4.50;4.50
66195;PMS7003;53000;45.182;5.736;2022-07-05T07:56:24;5.00;5.00;4.00
66195;PMS7003;53000;45.182;5.736;2022-07-05T07:58:50;3.25;3.25;3.25
66195;PMS7003;53000;45.182;5.736;2022-07-05T08:01:15;3.25;2.00;1.75
66195;PMS7003;53000;45.182;5.736;2022-07-05T08:03:41;3.75;3.00;2.00
66195;PMS7003;53000;45.182;5.736;2022-07-05T08:06:07;3.00;3.00;3.00
66195;PMS7003;53000;45.182;5.736;2022-07-05T08:08:43;3.00;3.00;3.00
66195;PMS7003;53000;45.182;5.736;2022-07-05T08:11:09;4.00;3.25;2.75
66195;PMS7003;53000;45.182;5.736;2022-07-05T08:13:36;3.00;3.00;3.00
66195;PMS7003;53000;45.182;5.736;2022-07-05T08:16:02;3.00;3.00;3.00
66195;PMS7003;53000;45.182;5.736;2022-07-05T08:18:28;2.50;2.50;2.50
66195;PMS7003;53000;45.182;5.736;2022-07-05T08:21:12;4.00;3.00;3.00
66195;PMS7003;53000;45.182;5.736;2022-07-05T08:23:59;3.50;3.00;3.00
66195;PMS7003;53000;45.182;5.736;2022-07-05T08:26:26;3.00;3.00;3.00
66195;PMS7003;53000;45.182;5.736;2022-07-05T08:28:52;5.25;4.00;3.00
66195;PMS7003;53000;45.182;5.736;2022-07-05T08:31:18;2.00;2.00;2.00
66195;PMS7003;53000;45.182;5.736;2022-07-05T08:33:44;4.50;3.25;2.00
66195;PMS7003;53000;45.182;5.736;2022-07-05T08:36:09;3.75;3.00;3.00
66195;PMS7003;53000;45.182;5.736;2022-07-05T08:38:35;2.75;2.75;2.75
66195;PMS7003;53000;45.182;5.736;2022-07-05T08:41:00;2.00;2.00;2.00
66195;PMS7003;53000;45.182;5.736;2022-07-05T08:43:27;3.50;3.50;3.00
66195;PMS7003;53000;45.182;5.736;2022-07-05T08:45:53;2.00;2.00;2.00
66195;PMS7003;53000;45.182;5.736;2022-07-05T08:48:20;2.25;2.25;2.00
66195;PMS7003;53000;45.182;5.736;2022-07-05T08:50:47;3.75;3.00;2.00
66195;PMS7003;53000;45.182;5.736;2022-07-05T08:53:15;2.25;1.75;1.50
66195;PMS7003;53000;45.182;5.736;2022-07-05T08:55:43;2.25;2.25;2.25
66195;PMS7003;53000;45.182;5.736;2022-07-05T08:58:10;2.25;2.25;2.00
66195;PMS7003;53000;45.182;5.736;2022-07-05T09:00:36;3.75;3.25;3.00
66195;PMS7003;53000;45.182;5.736;2022-07-05T09:03:03;3.00;3.00;3.00
66195;PMS7003;53000;45.182;5.736;2022-07-05T09:05:28;3.00;3.00;3.00
66195;PMS7003;53000;45.182;5.736;2022-07-05T09:07:59;5.25;3.75;3.75
66195;PMS7003;53000;45.182;5.736;2022-07-05T09:10:26;2.00;2.00;2.00
66195;PMS7003;53000;45.182;5.736;2022-07-05T09:12:55;4.00;4.00;3.25
66195;PMS7003;53000;45.182;5.736;2022-07-05T09:15:22;4.00;3.00;2.75
66195;PMS7003;53000;45.182;5.736;2022-07-05T09:17:48;2.75;2.75;2.75
66195;PMS7003;53000;45.182;5.736;2022-07-05T09:20:14;2.00;2.00;1.75
66195;PMS7003;53000;45.182;5.736;2022-07-05T09:22:51;3.75;3.00;3.00
66195;PMS7003;53000;45.182;5.736;2022-07-05T09:25:22;5.00;4.00;3.75
66195;PMS7003;53000;45.182;5.736;2022-07-05T09:30:34;4.50;4.50;4.00
66195;PMS7003;53000;45.182;5.736;2022-07-05T09:33:07;4.25;4.25;3.50
66195;PMS7003;53000;45.182;5.736;2022-07-05T09:35:33;3.00;3.00;3.00
66195;PMS7003;53000;45.182;5.736;2022-07-05T09:38:00;4.25;4.25;3.75
66195;PMS7003;53000;45.182;5.736;2022-07-05T09:40:29;3.50;3.50;3.00
66195;PMS7003;53000;45.182;5.736;2022-07-05T09:43:15;4.75;4.75;3.75
66195;PMS7003;53000;45.182;5.736;2022-07-05T09:48:16;3.00;3.00;3.00
66195;PMS7003;53000;45.182;5.736;2022-07-05T09:50:41;4.00;4.00;3.75
66195;PMS7003;53000;45.182;5.736;2022-07-05T09:53:08;5.00;4.00;3.25
66195;PMS7003;53000;45.182;5.736;2022-07-05T09:55:36;3.75;3.75;3.00
66195;PMS7003;53000;45.182;5.736;2022-07-05T09:58:01;3.00;3.00;3.00
66195;PMS7003;53000;45.182;5.736;2022-07-05T10:00:27;4.75;4.75;4.75
66195;PMS7003;53000;45.182;5.736;2022-07-05T10:02:56;5.25;5.00;4.75
66195;PMS7003;53000;45.182;5.736;2022-07-05T10:05:28;5.00;5.00;4.50
66195;PMS7003;53000;45.182;5.736;2022-07-05T10:07:59;6.00;6.00;5.75
66195;PMS7003;53000;45.182;5.736;2022-07-05T10:10:29;5.00;5.00;4.50
66195;PMS7003;53000;45.182;5.736;2022-07-05T10:12:58;5.00;3.25;3.00
66195;PMS7003;53000;45.182;5.736;2022-07-05T10:15:26;3.75;3.75;3.25
66195;PMS7003;53000;45.182;5.736;2022-07-05T10:18:01;3.25;3.00;2.75
66195;PMS7003;53000;45.182;5.736;2022-07-05T10:20:33;6.00;6.00;4.75
66195;PMS7003;53000;45.182;5.736;2022-07-05T10:23:02;3.25;3.25;3.00
66195;PMS7003;53000;45.182;5.736;2022-07-05T10:25:29;5.00;4.00;3.50
66195;PMS7003;53000;45.182;5.736;2022-07-05T10:27:55;4.25;4.00;3.75
66195;PMS7003;53000;45.182;5.736;2022-07-05T10:30:22;4.25;4.25;4.00
66195;PMS7003;53000;45.182;5.736;2022-07-05T10:32:48;3.25;3.00;2.75
66195;PMS7003;53000;45.182;5.736;2022-07-05T10:35:15;6.00;5.00;5.00
66195;PMS7003;53000;45.182;5.736;2022-07-05T10:37:42;4.00;4.00;4.00
66195;PMS7003;53000;45.182;5.736;2022-07-05T10:40:08;5.00;5.00;4.75
66195;PMS7003;53000;45.182;5.736;2022-07-05T10:42:51;5.75;5.00;5.00
66195;PMS7003;53000;45.182;5.736;2022-07-05T10:53:16;7.00;7.00;6.00
66195;PMS7003;53000;45.182;5.736;2022-07-05T10:55:46;7.75;7.50;6.50
66195;PMS7003;53000;45.182;5.736;2022-07-05T11:00:42;5.50;5.00;4.25
66195;PMS7003;53000;45.182;5.736;2022-07-05T11:05:59;5.50;5.50;5.00
66195;PMS7003;53000;45.182;5.736;2022-07-05T11:08:25;4.25;4.25;4.00
66195;PMS7003;53000;45.182;5.736;2022-07-05T11:13:49;5.00;5.00;4.00
66195;PMS7003;53000;45.182;5.736;2022-07-05T11:16:31;5.50;5.50;4.25
66195;PMS7003;53000;45.182;5.736;2022-07-05T11:19:08;5.00;5.00;4.50
66195;PMS7003;53000;45.182;5.736;2022-07-05T11:21:36;4.00;4.00;4.00
66195;PMS7003;53000;45.182;5.736;2022-07-05T11:24:25;7.25;7.00;5.25
66195;PMS7003;53000;45.182;5.736;2022-07-05T11:26:52;6.25;6.25;5.75
66195;PMS7003;53000;45.182;5.736;2022-07-05T11:34:45;3.75;3.00;3.00
66195;PMS7003;53000;45.182;5.736;2022-07-05T11:39:41;5.75;5.00;5.00
66195;PMS7003;53000;45.182;5.736;2022-07-05T11:42:10;5.00;4.50;4.25
66195;PMS7003;53000;45.182;5.736;2022-07-05T11:44:51;5.00;5.00;4.00
66195;PMS7003;53000;45.182;5.736;2022-07-05T11:47:19;4.25;4.25;4.00
66195;PMS7003;53000;45.182;5.736;2022-07-05T11:49:54;5.50;5.50;5.00
66195;PMS7003;53000;45.182;5.736;2022-07-05T11:52:30;3.25;3.25;3.00
66195;PMS7003;53000;45.182;5.736;2022-07-05T11:55:02;8.75;7.50;6.25
66195;PMS7003;53000;45.182;5.736;2022-07-05T11:57:30;5.25;5.25;4.25
66195;PMS7003;53000;45.182;5.736;2022-07-05T11:59:55;6.25;6.25;5.75
66195;PMS7003;53000;45.182;5.736;2022-07-05T12:02:21;6.00;5.25;5.00
66195;PMS7003;53000;45.182;5.736;2022-07-05T12:04:47;5.00;5.00;5.00
66195;PMS7003;53000;45.182;5.736;2022-07-05T12:07:33;6.00;6.00;5.50
66195;PMS7003;53000;45.182;5.736;2022-07-05T12:10:00;5.00;5.00;5.00
66195;PMS7003;53000;45.182;5.736;2022-07-05T12:12:45;7.25;5.25;5.00
66195;PMS7003;53000;45.182;5.736;2022-07-05T12:15:16;6.00;6.00;6.00
66195;PMS7003;53000;45.182;5.736;2022-07-05T12:17:44;6.00;6.00;5.00
66195;PMS7003;53000;45.182;5.736;2022-07-05T12:20:14;2.00;2.00;1.25
66195;PMS7003;53000;45.182;5.736;2022-07-05T12:22:45;7.00;6.00;5.00
66195;PMS7003;53000;45.182;5.736;2022-07-05T12:25:14;4.75;4.75;4.00
66195;PMS7003;53000;45.182;5.736;2022-07-05T12:27:43;5.00;5.00;4.00
66195;PMS7003;53000;45.182;5.736;2022-07-05T12:30:11;4.75;4.00;4.00
66195;PMS7003;53000;45.182;5.736;2022-07-05T12:38:00;5.50;4.00;4.00
66195;PMS7003;53000;45.182;5.736;2022-07-05T12:40:28;8.25;5.75;4.50
66195;PMS7003;53000;45.182;5.736;2022-07-05T12:43:03;5.00;5.00;4.00
66195;PMS7003;53000;45.182;5.736;2022-07-05T12:45:33;3.00;3.00;2.25
66195;PMS7003;53000;45.182;5.736;2022-07-05T12:48:01;5.00;5.00;4.00
66195;PMS7003;53000;45.182;5.736;2022-07-05T12:50:29;5.25;4.00;3.50
66195;PMS7003;53000;45.182;5.736;2022-07-05T12:53:09;4.50;4.50;4.50
66195;PMS7003;53000;45.182;5.736;2022-07-05T12:56:01;4.25;4.25;4.00
66195;PMS7003;53000;45.182;5.736;2022-07-05T12:58:50;6.75;4.75;4.25
66195;PMS7003;53000;45.182;5.736;2022-07-05T13:01:25;6.00;5.50;4.75
66195;PMS7003;53000;45.182;5.736;2022-07-05T13:06:52;4.25;4.00;4.00
66195;PMS7003;53000;45.182;5.736;2022-07-05T13:09:37;2.75;2.75;2.00
66195;PMS7003;53000;45.182;5.736;2022-07-05T13:14:47;4.50;3.00;3.00
66195;PMS7003;53000;45.182;5.736;2022-07-05T13:17:15;5.25;4.00;4.00
66195;PMS7003;53000;45.182;5.736;2022-07-05T13:19:43;5.75;4.00;3.75
66195;PMS7003;53000;45.182;5.736;2022-07-05T13:22:12;6.00;4.75;4.00
66195;PMS7003;53000;45.182;5.736;2022-07-05T13:24:38;4.25;3.50;3.25
66195;PMS7003;53000;45.182;5.736;2022-07-05T13:27:05;3.00;3.00;3.00
66195;PMS7003;53000;45.182;5.736;2022-07-05T13:29:31;4.00;4.00;3.75
66195;PMS7003;53000;45.182;5.736;2022-07-05T13:31:57;3.00;3.00;2.50
66195;PMS7003;53000;45.182;5.736;2022-07-05T13:34:22;3.75;3.25;3.00
66195;PMS7003;53000;45.182;5.736;2022-07-05T13:36:51;3.75;3.00;3.00
66195;PMS7003;53000;45.182;5.736;2022-07-05T13:39:18;3.25;3.25;3.25
66195;PMS7003;53000;45.182;5.736;2022-07-05T13:41:44;3.25;3.25;3.00
66195;PMS7003;53000;45.182;5.736;2022-07-05T13:44:11;3.25;3.25;3.00
66195;PMS7003;53000;45.182;5.736;2022-07-05T13:46:36;4.00;4.00;3.00
66195;PMS7003;53000;45.182;5.736;2022-07-05T13:49:02;3.00;3.00;2.75
66195;PMS7003;53000;45.182;5.736;2022-07-05T13:51:27;2.00;2.00;2.00
66195;PMS7003;53000;45.182;5.736;2022-07-05T13:53:53;4.00;3.50;3.00
66195;PMS7003;53000;45.182;5.736;2022-07-05T13:56:18;4.25;3.75;3.00
66195;PMS7003;53000;45.182;5.736;2022-07-05T13:58:44;2.00;2.00;2.00
66195;PMS7003;53000;45.182;5.736;2022-07-05T14:01:09;2.75;2.00;2.00
66195;PMS7003;53000;45.182;5.736;2022-07-05T14:03:35;3.00;3.00;3.00
66195;PMS7003;53000;45.182;5.736;2022-07-05T14:06:00;3.00;3.00;2.00
66195;PMS7003;53000;45.182;5.736;2022-07-05T14:08:25;4.75;4.00;3.00
66195;PMS7003;53000;45.182;5.736;2022-07-05T14:10:52;2.00;2.00;2.00
66195;PMS7003;53000;45.182;5.736;2022-07-05T14:13:22;1.00;1.00;1.00
66195;PMS7003;53000;45.182;5.736;2022-07-05T14:15:49;2.25;2.25;2.00
66195;PMS7003;53000;45.182;5.736;2022-07-05T14:18:15;2.25;2.25;2.00
66195;PMS7003;53000;45.182;5.736;2022-07-05T14:20:42;2.25;2.25;2.00
66195;PMS7003;53000;45.182;5.736;2022-07-05T14:23:09;2.00;2.00;2.00
66195;PMS7003;53000;45.182;5.736;2022-07-05T14:25:35;2.00;1.75;1.00
66195;PMS7003;53000;45.182;5.736;2022-07-05T14:28:01;3.25;2.00;1.50
66195;PMS7003;53000;45.182;5.736;2022-07-05T14:30:27;1.75;1.75;1.25
66195;PMS7003;53000;45.182;5.736;2022-07-05T14:32:53;2.50;2.50;2.00
66195;PMS7003;53000;45.182;5.736;2022-07-05T14:35:19;3.00;3.00;2.25
66195;PMS7003;53000;45.182;5.736;2022-07-05T14:37:45;3.25;2.25;2.00
66195;PMS7003;53000;45.182;5.736;2022-07-05T14:40:11;3.75;2.50;2.00
66195;PMS7003;53000;45.182;5.736;2022-07-05T14:42:37;2.25;2.25;1.75
66195;PMS7003;53000;45.182;5.736;2022-07-05T14:45:02;1.00;1.00;1.00
66195;PMS7003;53000;45.182;5.736;2022-07-05T14:47:28;2.25;2.00;2.00
66195;PMS7003;53000;45.182;5.736;2022-07-05T14:49:53;2.00;2.00;2.00
66195;PMS7003;53000;45.182;5.736;2022-07-05T14:52:19;1.25;1.25;1.00
66195;PMS7003;53000;45.182;5.736;2022-07-05T14:54:45;1.00;1.00;1.00
66195;PMS7003;53000;45.182;5.736;2022-07-05T14:57:10;2.50;2.50;2.50
66195;PMS7003;53000;45.182;5.736;2022-07-05T14:59:36;3.00;2.25;2.00
66195;PMS7003;53000;45.182;5.736;2022-07-05T15:02:01;2.50;2.00;2.00
66195;PMS7003;53000;45.182;5.736;2022-07-05T15:04:29;4.00;2.50;2.00
66195;PMS7003;53000;45.182;5.736;2022-07-05T15:06:54;2.00;2.00;1.25